createdAt,value
2022-12-01T00:01:39.754Z,17.30
2022-12-01T00:04:08.153Z,18.17
2022-12-01T00:06:36.628Z,15.67
2022-12-01T00:09:22.903Z,17.70
2022-12-01T00:11:52.680Z,16.80
2022-12-01T00:14:21.120Z,16.27
2022-12-01T00:16:49.529Z,15.90
2022-12-01T00:19:18.389Z,14.90
2022-12-01T00:21:47.795Z,16.00
2022-12-01T00:24:16.297Z,14.30
2022-12-01T00:26:44.817Z,15.00
2022-12-01T00:29:14.624Z,14.63
2022-12-01T00:31:43.153Z,14.47
2022-12-01T00:34:16.154Z,14.07
2022-12-01T00:36:44.780Z,16.10
2022-12-01T00:39:13.244Z,15.60
2022-12-01T00:41:41.636Z,16.10
2022-12-01T00:44:10.267Z,15.20
2022-12-01T00:46:40.025Z,14.93
2022-12-01T00:49:08.502Z,13.50
2022-12-01T00:51:36.925Z,14.87
2022-12-01T00:54:05.494Z,13.80
2022-12-01T00:56:33.915Z,13.53
2022-12-01T00:59:02.299Z,14.90
2022-12-01T01:01:30.723Z,13.90
2022-12-01T01:04:01.033Z,14.07
2022-12-01T01:06:29.664Z,13.30
2022-12-01T01:08:58.095Z,13.20
2022-12-01T01:11:26.577Z,13.43
2022-12-01T01:13:55.067Z,14.00
2022-12-01T01:16:24.148Z,13.73
2022-12-01T01:18:52.574Z,14.33
2022-12-01T01:21:23.066Z,14.40
2022-12-01T01:23:51.868Z,13.43
2022-12-01T01:26:21.730Z,13.43
2022-12-01T01:28:50.693Z,11.83
2022-12-01T01:31:20.817Z,13.10
2022-12-01T01:33:49.467Z,13.93
2022-12-01T01:36:18.272Z,13.93
2022-12-01T01:38:48.337Z,13.97
2022-12-01T01:41:16.788Z,14.60
2022-12-01T01:43:47.326Z,14.83
2022-12-01T01:46:16.912Z,12.33
2022-12-01T01:48:47.789Z,12.13
2022-12-01T01:51:16.991Z,13.07
2022-12-01T01:53:47.350Z,13.90
2022-12-01T01:56:17.202Z,13.60
2022-12-01T01:58:46.065Z,14.80
2022-12-01T02:01:14.670Z,14.67
2022-12-01T02:03:43.440Z,15.27
2022-12-01T02:06:12.045Z,14.40
2022-12-01T02:08:40.553Z,14.47
2022-12-01T02:11:26.834Z,14.97
2022-12-01T02:14:02.367Z,14.63
2022-12-01T02:16:35.712Z,14.33
2022-12-01T02:19:11.957Z,13.90
2022-12-01T02:21:49.977Z,14.97
2022-12-01T02:24:37.260Z,15.00
2022-12-01T02:27:09.614Z,14.30
2022-12-01T02:29:43.774Z,13.27
2022-12-01T02:32:16.814Z,14.20
2022-12-01T02:34:48.386Z,13.93
2022-12-01T02:37:21.662Z,14.40
2022-12-01T02:39:54.377Z,12.90
2022-12-01T02:42:40.982Z,14.17
2022-12-01T02:45:11.887Z,14.77
2022-12-01T02:47:42.165Z,14.00
2022-12-01T02:50:12.182Z,14.57
2022-12-01T02:52:42.037Z,13.97
2022-12-01T02:55:11.130Z,14.13
2022-12-01T02:57:39.493Z,14.80
2022-12-01T03:00:13.490Z,14.37
2022-12-01T03:02:50.135Z,13.47
2022-12-01T03:05:21.445Z,13.63
2022-12-01T03:07:58.721Z,13.60
2022-12-01T03:10:29.139Z,13.43
2022-12-01T03:13:03.452Z,13.10
2022-12-01T03:15:35.770Z,13.80
2022-12-01T03:18:09.659Z,13.77
2022-12-01T03:20:41.408Z,13.40
2022-12-01T03:23:11.461Z,14.23
2022-12-01T03:25:41.889Z,13.80
2022-12-01T03:28:21.213Z,12.33
2022-12-01T03:30:52.684Z,12.83
2022-12-01T03:33:26.235Z,13.37
2022-12-01T03:35:57.480Z,13.50
2022-12-01T03:38:26.706Z,14.43
2022-12-01T03:40:58.685Z,14.63
2022-12-01T03:43:29.809Z,14.40
2022-12-01T03:46:01.415Z,14.90
2022-12-01T03:48:31.427Z,14.00
2022-12-01T03:51:06.635Z,14.00
2022-12-01T03:53:36.440Z,15.37
2022-12-01T03:56:06.798Z,14.60
2022-12-01T03:58:37.095Z,15.67
2022-12-01T04:01:06.038Z,16.87
2022-12-01T04:03:35.885Z,16.50
2022-12-01T04:06:04.352Z,16.20
2022-12-01T04:08:33.882Z,15.60
2022-12-01T04:11:22.342Z,17.33
2022-12-01T04:13:49.746Z,17.40
2022-12-01T04:16:18.216Z,15.87
2022-12-01T04:18:48.141Z,18.03
2022-12-01T04:21:16.599Z,19.20
2022-12-01T04:24:03.561Z,19.10
2022-12-01T04:26:33.261Z,17.87
2022-12-01T04:29:01.768Z,17.47
2022-12-01T04:31:30.533Z,18.70
2022-12-01T04:34:01.177Z,17.03
2022-12-01T04:36:31.757Z,18.03
2022-12-01T04:39:00.209Z,17.23
2022-12-01T04:41:28.630Z,17.27
2022-12-01T04:43:57.434Z,18.63
2022-12-01T04:46:26.554Z,17.50
2022-12-01T04:48:54.964Z,17.73
2022-12-01T04:51:24.788Z,16.60
2022-12-01T04:53:53.187Z,17.63
2022-12-01T04:56:21.634Z,18.77
2022-12-01T04:58:50.242Z,17.60
2022-12-01T05:01:19.646Z,17.73
2022-12-01T05:03:50.569Z,16.67
2022-12-01T05:06:20.623Z,18.77
2022-12-01T05:08:50.910Z,18.43
2022-12-01T05:11:19.736Z,17.50
2022-12-01T05:13:48.824Z,17.13
2022-12-01T05:16:18.417Z,17.00
2022-12-01T05:18:49.736Z,16.80
2022-12-01T05:21:17.253Z,16.77
2022-12-01T05:23:45.767Z,17.47
2022-12-01T05:26:15.544Z,16.20
2022-12-01T05:28:43.950Z,17.20
2022-12-01T05:31:12.393Z,17.47
2022-12-01T05:33:41.000Z,18.20
2022-12-01T05:36:09.796Z,16.73
2022-12-01T05:38:38.243Z,16.40
2022-12-01T05:41:06.983Z,15.93
2022-12-01T05:43:36.737Z,17.47
2022-12-01T05:46:05.524Z,18.03
2022-12-01T05:48:34.005Z,15.53
2022-12-01T05:51:02.470Z,15.77
2022-12-01T05:53:31.213Z,17.00
2022-12-01T05:55:59.698Z,16.60
2022-12-01T05:58:28.066Z,16.97
2022-12-01T06:00:58.103Z,16.93
2022-12-01T06:03:26.632Z,17.97
2022-12-01T06:05:55.114Z,16.03
2022-12-01T06:08:23.610Z,15.47
2022-12-01T06:10:52.127Z,16.00
2022-12-01T06:13:20.538Z,15.77
2022-12-01T06:15:58.633Z,15.87
2022-12-01T06:18:27.921Z,14.90
2022-12-01T06:20:56.340Z,15.30
2022-12-01T06:23:29.985Z,15.17
2022-12-01T06:25:58.926Z,13.83
2022-12-01T06:28:27.367Z,14.97
2022-12-01T06:31:02.557Z,16.07
2022-12-01T06:33:32.965Z,15.93
2022-12-01T06:36:01.857Z,13.60
2022-12-01T06:38:32.409Z,14.60
2022-12-01T06:41:00.985Z,22.90
2022-12-01T06:43:29.543Z,17.97
2022-12-01T06:46:02.164Z,16.77
2022-12-01T06:48:31.054Z,14.00
2022-12-01T06:51:01.324Z,14.43
2022-12-01T06:53:30.041Z,14.87
2022-12-01T06:56:01.969Z,15.10
2022-12-01T06:58:30.781Z,15.90
2022-12-01T07:00:59.855Z,14.17
2022-12-01T07:03:28.618Z,14.37
2022-12-01T07:05:58.910Z,14.53
2022-12-01T07:08:29.065Z,14.77
2022-12-01T07:11:01.110Z,14.67
2022-12-01T07:13:33.411Z,14.10
2022-12-01T07:16:03.165Z,14.10
2022-12-01T07:18:32.080Z,14.50
2022-12-01T07:21:01.644Z,14.17
2022-12-01T07:23:31.791Z,13.60
2022-12-01T07:26:00.701Z,13.33
2022-12-01T07:28:29.158Z,13.10
2022-12-01T07:31:02.615Z,13.87
2022-12-01T07:33:31.246Z,13.80
2022-12-01T07:35:59.772Z,13.47
2022-12-01T07:38:29.766Z,13.10
2022-12-01T07:41:02.835Z,12.70
2022-12-01T07:43:31.806Z,13.33
2022-12-01T07:46:06.093Z,12.77
2022-12-01T07:48:34.630Z,14.23
2022-12-01T07:51:03.229Z,13.63
2022-12-01T07:53:31.678Z,13.70
2022-12-01T07:56:05.670Z,13.50
2022-12-01T07:58:36.992Z,13.30
2022-12-01T08:01:08.032Z,12.93
2022-12-01T08:03:36.568Z,12.83
2022-12-01T08:06:05.647Z,13.47
2022-12-01T08:08:34.435Z,12.87
2022-12-01T08:11:04.895Z,13.27
2022-12-01T08:13:33.327Z,14.37
2022-12-01T08:16:04.566Z,14.47
2022-12-01T08:18:33.020Z,12.80
2022-12-01T08:21:01.375Z,13.70
2022-12-01T08:23:29.754Z,14.30
2022-12-01T08:25:58.149Z,18.30
2022-12-01T08:28:28.178Z,17.33
2022-12-01T08:30:56.764Z,15.00
2022-12-01T08:33:25.765Z,14.90
2022-12-01T08:35:54.324Z,16.17
2022-12-01T08:38:22.736Z,14.30
2022-12-01T08:40:51.288Z,15.27
2022-12-01T08:43:49.531Z,14.57
2022-12-01T08:46:09.828Z,16.27
2022-12-01T08:48:38.542Z,15.77
2022-12-01T08:51:07.630Z,16.07
2022-12-01T08:53:40.169Z,15.60
2022-12-01T08:56:16.356Z,14.70
2022-12-01T08:58:44.978Z,17.40
2022-12-01T09:01:15.652Z,17.77
2022-12-01T09:03:44.445Z,18.40
2022-12-01T09:06:14.076Z,17.47
2022-12-01T09:08:42.625Z,18.23
2022-12-01T09:11:12.874Z,17.80
2022-12-01T09:13:41.678Z,18.70
2022-12-01T09:16:12.202Z,17.23
2022-12-01T09:18:42.161Z,17.80
2022-12-01T09:21:14.059Z,16.67
2022-12-01T09:23:42.587Z,17.37
2022-12-01T09:26:13.819Z,16.53
2022-12-01T09:28:42.746Z,16.43
2022-12-01T09:31:13.600Z,15.70
2022-12-01T09:33:43.484Z,15.40
2022-12-01T09:36:12.465Z,15.23
2022-12-01T09:38:41.192Z,16.27
2022-12-01T09:41:11.930Z,17.10
2022-12-01T09:43:42.050Z,17.60
2022-12-01T09:46:13.816Z,15.43
2022-12-01T09:48:44.647Z,15.30
2022-12-01T09:51:15.241Z,14.83
2022-12-01T09:53:44.143Z,15.13
2022-12-01T09:56:19.420Z,15.00
2022-12-01T09:58:48.843Z,15.23
2022-12-01T10:01:24.458Z,15.50
2022-12-01T10:03:59.902Z,15.20
2022-12-01T10:06:31.070Z,15.43
2022-12-01T10:09:14.370Z,15.70
2022-12-01T10:11:44.609Z,15.53
2022-12-01T10:14:19.764Z,15.07
2022-12-01T10:16:52.345Z,15.33
2022-12-01T10:19:25.436Z,15.90
2022-12-01T10:22:01.383Z,14.83
2022-12-01T10:24:36.905Z,15.50
2022-12-01T10:27:25.968Z,17.07
2022-12-01T10:29:59.932Z,17.73
2022-12-01T10:32:32.752Z,19.13
2022-12-01T10:35:02.640Z,17.83
2022-12-01T10:37:32.646Z,17.53
2022-12-01T10:40:01.385Z,19.27
2022-12-01T10:42:31.062Z,18.43
2022-12-01T10:45:01.810Z,19.00
2022-12-01T10:47:31.867Z,21.23
2022-12-01T10:50:01.734Z,20.83
2022-12-01T10:52:35.072Z,23.03
2022-12-01T10:55:04.340Z,20.37
2022-12-01T10:57:33.178Z,20.97
2022-12-01T11:00:02.783Z,19.53
2022-12-01T11:02:32.707Z,19.60
2022-12-01T11:05:03.880Z,18.83
2022-12-01T11:07:35.522Z,19.90
2022-12-01T11:10:06.931Z,20.63
2022-12-01T11:12:35.805Z,20.63
2022-12-01T11:15:04.290Z,22.00
2022-12-01T11:17:33.748Z,20.60
2022-12-01T11:20:18.845Z,20.93
2022-12-01T11:22:47.357Z,18.83
2022-12-01T11:25:20.771Z,20.53
2022-12-01T11:27:50.833Z,21.53
2022-12-01T11:30:22.597Z,21.57
2022-12-01T11:32:54.343Z,19.27
2022-12-01T11:35:25.413Z,19.90
2022-12-01T11:38:27.888Z,19.33
2022-12-01T11:40:48.426Z,20.07
2022-12-01T11:43:23.624Z,20.40
2022-12-01T11:45:52.339Z,20.37
2022-12-01T11:48:26.045Z,19.83
2022-12-01T11:51:09.733Z,20.57
2022-12-01T11:53:39.138Z,19.07
2022-12-01T11:56:18.264Z,20.43
2022-12-01T11:58:48.774Z,21.00
2022-12-01T12:01:22.101Z,20.33
2022-12-01T12:03:57.109Z,29.03
2022-12-01T12:06:44.221Z,24.23
2022-12-01T12:09:26.447Z,23.80
2022-12-01T12:11:57.231Z,24.30
2022-12-01T12:14:30.368Z,24.03
2022-12-01T12:17:19.446Z,25.87
2022-12-01T12:20:09.767Z,24.07
2022-12-01T12:22:42.635Z,22.67
2022-12-01T12:25:22.895Z,22.27
2022-12-01T12:27:55.702Z,22.37
2022-12-01T12:30:26.411Z,22.73
2022-12-01T12:33:08.884Z,23.90
2022-12-01T12:35:41.007Z,20.57
2022-12-01T12:38:24.624Z,21.43
2022-12-01T12:40:55.638Z,20.07
2022-12-01T12:43:26.858Z,21.00
2022-12-01T12:46:01.253Z,20.13
2022-12-01T12:48:50.900Z,21.23
2022-12-01T12:51:30.431Z,22.77
2022-12-01T12:54:01.922Z,21.90
2022-12-01T12:56:32.157Z,21.00
2022-12-01T12:59:03.362Z,21.77
2022-12-01T13:01:34.461Z,21.50
2022-12-01T13:04:05.951Z,21.07
2022-12-01T13:06:38.333Z,21.50
2022-12-01T13:09:11.624Z,21.53
2022-12-01T13:11:45.742Z,21.73
2022-12-01T13:14:17.915Z,20.63
2022-12-01T13:16:48.303Z,20.37
2022-12-01T13:19:18.454Z,18.43
2022-12-01T13:21:47.724Z,20.47
2022-12-01T13:24:23.405Z,21.00
2022-12-01T13:26:54.780Z,19.77
2022-12-01T13:29:24.584Z,20.53
2022-12-01T13:31:54.453Z,19.03
2022-12-01T13:34:26.245Z,20.37
2022-12-01T13:36:55.591Z,17.80
2022-12-01T13:39:26.538Z,18.47
2022-12-01T13:42:02.385Z,19.87
2022-12-01T13:44:32.784Z,19.90
2022-12-01T13:47:04.609Z,20.77
2022-12-01T13:49:51.106Z,18.27
2022-12-01T13:52:28.554Z,20.03
2022-12-01T13:55:23.575Z,19.40
2022-12-01T13:58:14.109Z,20.57
2022-12-01T14:00:43.098Z,20.10
2022-12-01T14:03:30.442Z,17.23
2022-12-01T14:06:07.725Z,19.57
2022-12-01T14:08:37.713Z,19.33
2022-12-01T14:11:08.831Z,18.23
2022-12-01T14:13:46.015Z,18.47
2022-12-01T14:16:14.648Z,19.63
2022-12-01T14:18:44.635Z,18.33
2022-12-01T14:21:14.700Z,19.10
2022-12-01T14:24:00.468Z,18.57
2022-12-01T14:26:31.558Z,18.00
2022-12-01T14:29:17.713Z,18.57
2022-12-01T14:32:06.988Z,19.40
2022-12-01T14:34:36.007Z,19.30
2022-12-01T14:37:07.043Z,19.63
2022-12-01T14:39:36.821Z,19.40
2022-12-01T14:42:08.962Z,18.80
2022-12-01T14:44:38.911Z,19.53
2022-12-01T14:47:10.333Z,19.67
2022-12-01T14:49:41.446Z,19.07
2022-12-01T14:52:16.609Z,19.13
2022-12-01T14:54:45.839Z,18.13
2022-12-01T14:57:18.162Z,19.93
2022-12-01T14:59:46.954Z,20.00
2022-12-01T15:02:15.736Z,20.27
2022-12-01T15:05:02.507Z,20.27
2022-12-01T15:07:31.607Z,20.13
2022-12-01T15:10:01.964Z,20.40
2022-12-01T15:12:32.268Z,19.30
2022-12-01T15:15:00.955Z,19.60
2022-12-01T15:17:31.291Z,18.80
2022-12-01T15:20:00.418Z,19.33
2022-12-01T15:22:31.317Z,20.17
2022-12-01T15:25:07.688Z,20.80
2022-12-01T15:27:37.543Z,22.10
2022-12-01T15:30:06.513Z,21.13
2022-12-01T15:32:39.043Z,22.30
2022-12-01T15:35:08.956Z,29.13
2022-12-01T15:37:44.435Z,23.83
2022-12-01T15:43:06.446Z,21.23
2022-12-01T15:45:44.224Z,20.90
2022-12-01T15:48:17.828Z,21.93
2022-12-01T15:50:48.096Z,21.83
2022-12-01T15:53:23.320Z,22.10
2022-12-01T15:55:58.433Z,22.23
2022-12-01T15:58:30.236Z,24.87
2022-12-01T16:01:00.634Z,27.43
2022-12-01T16:03:29.495Z,29.07
2022-12-01T16:05:58.302Z,26.37
2022-12-01T16:08:28.283Z,24.73
2022-12-01T16:11:13.195Z,23.67
2022-12-01T16:13:46.245Z,23.63
2022-12-01T16:16:29.550Z,26.37
2022-12-01T16:18:59.150Z,26.40
2022-12-01T16:21:27.947Z,31.77
2022-12-01T16:24:03.190Z,26.17
2022-12-01T16:26:32.081Z,23.83
2022-12-01T16:29:02.115Z,24.83
2022-12-01T16:31:30.590Z,30.03
2022-12-01T16:34:13.947Z,24.33
2022-12-01T16:36:51.698Z,25.10
2022-12-01T16:39:20.190Z,23.97
2022-12-01T16:41:48.642Z,25.30
2022-12-01T16:44:28.639Z,23.87
2022-12-01T16:46:57.729Z,24.50
2022-12-01T16:49:26.228Z,25.20
2022-12-01T16:51:56.514Z,30.30
2022-12-01T16:54:25.930Z,26.17
2022-12-01T16:56:54.401Z,25.03
2022-12-01T16:59:24.891Z,44.03
2022-12-01T17:01:53.537Z,28.13
2022-12-01T17:04:21.982Z,26.03
2022-12-01T17:06:50.471Z,26.90
2022-12-01T17:09:18.948Z,26.20
2022-12-01T17:11:47.473Z,26.40
2022-12-01T17:14:15.828Z,27.63
2022-12-01T17:16:45.572Z,24.53
2022-12-01T17:19:13.986Z,26.33
2022-12-01T17:21:42.604Z,25.63
2022-12-01T17:24:11.042Z,26.73
2022-12-01T17:26:39.509Z,25.53
2022-12-01T17:29:07.980Z,26.30
2022-12-01T17:31:36.421Z,28.30
2022-12-01T17:34:06.229Z,25.13
2022-12-01T17:36:34.747Z,24.57
2022-12-01T17:39:03.127Z,25.00
2022-12-01T17:41:35.730Z,24.33
2022-12-01T17:44:04.795Z,25.77
2022-12-01T17:46:33.658Z,28.00
2022-12-01T17:49:08.490Z,30.73
2022-12-01T17:51:38.542Z,29.27
2022-12-01T17:54:07.225Z,27.87
2022-12-01T17:56:35.977Z,34.23
2022-12-01T17:59:04.530Z,27.33
2022-12-01T18:01:33.060Z,30.23
2022-12-01T18:04:01.585Z,25.77
2022-12-01T18:06:30.061Z,27.83
2022-12-01T18:09:00.914Z,28.67
2022-12-01T18:11:29.462Z,27.27
2022-12-01T18:13:58.457Z,26.30
2022-12-01T18:16:28.147Z,29.73
2022-12-01T18:18:58.644Z,28.13
2022-12-01T18:21:28.237Z,34.47
2022-12-01T18:23:58.140Z,26.47
2022-12-01T18:26:28.569Z,27.07
2022-12-01T18:28:57.404Z,25.97
2022-12-01T18:31:26.439Z,25.07
2022-12-01T18:33:54.997Z,27.13
2022-12-01T18:36:24.298Z,24.33
2022-12-01T18:38:54.534Z,24.47
2022-12-01T18:41:23.051Z,22.67
2022-12-01T18:43:53.000Z,22.97
2022-12-01T18:46:22.170Z,26.23
2022-12-01T18:48:51.801Z,26.83
2022-12-01T18:51:20.639Z,21.60
2022-12-01T18:53:49.272Z,25.17
2022-12-01T18:56:17.786Z,23.87
2022-12-01T18:58:46.243Z,23.27
2022-12-01T19:01:22.875Z,23.60
2022-12-01T19:03:51.559Z,23.67
2022-12-01T19:06:20.144Z,32.87
2022-12-01T19:08:48.796Z,31.73
2022-12-01T19:11:17.302Z,29.40
2022-12-01T19:13:45.829Z,26.07
2022-12-01T19:16:15.079Z,24.70
2022-12-01T19:18:44.948Z,25.03
2022-12-01T19:21:15.386Z,26.60
2022-12-01T19:23:44.111Z,27.43
2022-12-01T19:26:13.510Z,29.50
2022-12-01T19:28:45.318Z,29.20
2022-12-01T19:31:14.721Z,25.67
2022-12-01T19:33:43.210Z,34.23
2022-12-01T19:36:14.381Z,28.13
2022-12-01T19:38:44.521Z,25.80
2022-12-01T19:41:13.502Z,26.77
2022-12-01T19:43:42.190Z,26.97
2022-12-01T19:46:11.944Z,26.87
2022-12-01T19:48:40.810Z,27.00
2022-12-01T19:51:09.658Z,25.47
2022-12-01T19:53:39.507Z,26.10
2022-12-01T19:56:08.218Z,26.13
2022-12-01T19:58:37.701Z,26.80
2022-12-01T20:01:06.779Z,27.20
2022-12-01T20:03:35.413Z,26.97
2022-12-01T20:06:04.803Z,27.30
2022-12-01T20:08:35.881Z,27.20
2022-12-01T20:11:06.544Z,28.13
2022-12-01T20:13:35.558Z,50.37
2022-12-01T20:16:04.861Z,33.50
2022-12-01T20:18:33.605Z,30.63
2022-12-01T20:21:05.960Z,29.43
2022-12-01T20:23:34.750Z,29.97
2022-12-01T20:26:03.614Z,30.70
2022-12-01T20:28:33.834Z,31.23
2022-12-01T20:31:02.350Z,29.57
2022-12-01T20:33:30.812Z,28.53
2022-12-01T20:35:59.222Z,26.90
2022-12-01T20:38:28.014Z,27.20
2022-12-01T20:40:56.540Z,26.33
2022-12-01T20:43:24.961Z,24.20
2022-12-01T20:45:54.968Z,25.70
2022-12-01T20:48:23.506Z,26.87
2022-12-01T20:50:52.072Z,27.77
2022-12-01T20:53:20.524Z,24.87
2022-12-01T20:55:49.172Z,24.03
2022-12-01T20:58:17.633Z,24.77
2022-12-01T21:00:46.396Z,24.90
2022-12-01T21:03:16.567Z,22.87
2022-12-01T21:05:45.354Z,23.73
2022-12-01T21:08:15.073Z,23.00
2022-12-01T21:10:44.915Z,23.93
2022-12-01T21:13:35.508Z,24.00
2022-12-01T21:16:07.125Z,24.50
2022-12-01T21:18:43.914Z,25.70
2022-12-01T21:21:19.049Z,25.40
2022-12-01T21:23:47.595Z,24.97
2022-12-01T21:26:16.487Z,23.60
2022-12-01T21:28:45.006Z,24.67
2022-12-01T21:31:15.096Z,24.73
2022-12-01T21:33:45.236Z,27.20
2022-12-01T21:36:16.820Z,33.33
2022-12-01T21:38:45.782Z,33.77
2022-12-01T21:41:17.949Z,31.13
2022-12-01T21:43:46.415Z,29.47
2022-12-01T21:46:16.231Z,30.13
2022-12-01T21:48:47.232Z,29.23
2022-12-01T21:51:18.156Z,30.50
2022-12-01T21:53:46.787Z,30.53
2022-12-01T21:56:18.179Z,33.13
2022-12-01T21:58:46.565Z,30.43
2022-12-01T22:01:18.094Z,32.13
2022-12-01T22:03:48.292Z,30.43
2022-12-01T22:06:31.572Z,32.07
2022-12-01T22:09:02.884Z,35.67
2022-12-01T22:11:32.041Z,32.10
2022-12-01T22:14:02.615Z,27.70
2022-12-01T22:16:31.710Z,32.23
2022-12-01T22:19:03.085Z,26.93
2022-12-01T22:21:36.159Z,27.27
2022-12-01T22:24:20.506Z,27.47
2022-12-01T22:26:49.954Z,25.07
2022-12-01T22:29:23.054Z,24.10
2022-12-01T22:31:51.529Z,23.37
2022-12-01T22:34:22.049Z,22.87
2022-12-01T22:36:51.302Z,22.90
2022-12-01T22:39:27.203Z,22.83
2022-12-01T22:41:59.113Z,23.17
2022-12-01T22:44:28.831Z,23.17
2022-12-01T22:46:58.882Z,24.80
2022-12-01T22:49:28.881Z,23.13
2022-12-01T22:51:58.945Z,23.30
2022-12-01T22:54:32.001Z,23.33
2022-12-01T22:57:15.332Z,24.77
2022-12-01T22:59:44.802Z,24.57
2022-12-01T23:02:20.434Z,24.43
2022-12-01T23:04:51.401Z,22.87
2022-12-01T23:07:33.693Z,26.33
2022-12-01T23:10:07.370Z,23.27
2022-12-01T23:12:36.580Z,24.57
2022-12-01T23:15:16.619Z,24.37
2022-12-01T23:17:45.107Z,25.93
2022-12-01T23:20:24.698Z,26.50
2022-12-01T23:22:55.520Z,24.77
2022-12-01T23:25:24.872Z,25.03
2022-12-01T23:27:54.234Z,29.20
2022-12-01T23:30:23.694Z,29.43
2022-12-01T23:32:57.763Z,24.93
2022-12-01T23:35:27.558Z,25.27
2022-12-01T23:37:55.980Z,26.27
2022-12-01T23:40:28.171Z,25.93
2022-12-01T23:42:56.679Z,26.00
2022-12-01T23:45:26.634Z,28.63
2022-12-01T23:47:56.475Z,28.57
2022-12-01T23:50:26.573Z,30.10
2022-12-01T23:52:57.748Z,30.80
2022-12-01T23:55:28.195Z,28.70
2022-12-01T23:57:57.154Z,27.90
